Terminal Aerodrome Forecast
Issued by NWS

Home | Current Version | Previous Version | Text Only | Print | Product List | Glossary On
Versions: 1 2 3 4 5 6 7 8 9 10 11 12 13 14 15 16 17 18 19 20 21 22 23 24 25 26 27 28 29 30 31 32 33 34 35 36 37 38 39
000
FTUS44 KMOB 261700
TAFBFM
TAF
KBFM 261736Z 2618/2718 VRB03KT P6SM VCTS SCT040CB BKN080
     FM270000 21005KT P6SM SCT030 BKN200
     FM270600 25003KT P6SM SCT250
     FM271400 29002KT P6SM VCTS SCT030CB SCT250=

USA.gov is the U.S. government's official web portal to all federal, state and local government web resources and services.